Time;durP1;ratioP1;P1;durP2;ratioP2;P2;SDS_P1;SDS_P2;PMS_P1;PMS_P2;Temp;Humidity;BMP_temperature;BMP_pressure;BME280_temperature;BME280_humidity;BME280_pressure;Samples;Min_cycle;Max_cycle;Signal;HPM_P1;HPM_P2
2022/03/30 00:02:12;;;;;;;;;;;;;;;;;;6117124;23;20037;-83
2022/03/30 00:04:38;;;;;;;;;;;;;;;;;;6142072;23;19920;-83
2022/03/30 00:07:05;;;;;;;;;;;;;;;;;;6142923;23;20798;-83
2022/03/30 00:09:32;;;;;;;;;;;;;;;;;;6116426;23;19920;-83
2022/03/30 00:11:58;;;;;;;;;;;;;;;;;;6140478;23;20031;-83
2022/03/30 00:14:24;;;;;;;;;;;;;;;;;;6138970;23;20456;-83
2022/03/30 00:16:52;;;;;;;;;;;;;;;;;;6140698;23;19960;-83
2022/03/30 00:19:19;;;;;;;;;;;;;;;;;;6139818;23;20293;-83
2022/03/30 00:21:46;;;;;;;;;;;;;;;;;;6116535;23;19928;-83
2022/03/30 00:24:13;;;;;;;;;;;;;;;;;;6120260;23;19997;-83
2022/03/30 00:26:40;;;;;;;;;;;;;;;;;;6169115;23;19927;-83
2022/03/30 00:29:07;;;;;;;;;;;;;;;;;;6180882;23;19943;-83
2022/03/30 00:31:33;;;;;;;;;;;;;;;;;;6206569;23;20310;-83
2022/03/30 00:34:01;;;;;;;;;;;;;;;;;;6179871;23;19916;-83
2022/03/30 00:36:27;;;;;;;;;;;;;;;;;;6179655;23;19941;-83
2022/03/30 00:38:53;;;;;;;;;;;;;;;;;;6180062;23;19936;-83
2022/03/30 00:41:20;;;;;;;;;;;;;;;;;;6179258;23;19916;-83
2022/03/30 00:43:50;;;;;;;;;;;;;;;;;;6180904;23;19927;-83
2022/03/30 00:46:17;;;;;;;;;;;;;;;;;;6179130;23;19923;-83
2022/03/30 00:48:44;;;;;;;;;;;;;;;;;;6180418;23;19994;-83
2022/03/30 00:51:10;;;;;;;;;;;;;;;;;;6182156;23;19923;-83
2022/03/30 00:53:36;;;;;;;;;;;;;;;;;;6183144;23;19924;-83
2022/03/30 00:56:04;;;;;;;;;;;;;;;;;;6179337;23;20283;-83
2022/03/30 00:58:31;;;;;;;;;;;;;;;;;;6178657;23;19962;-83
2022/03/30 01:00:58;;;;;;;;;;;;;;;;;;6177786;23;20091;-83
2022/03/30 01:03:25;;;;;;;;;;;;;;;;;;6176814;23;19920;-83
2022/03/30 01:05:52;;;;;;;;;;;;;;;;;;6177553;23;19927;-83
2022/03/30 01:08:20;;;;;;;;;;;;;;;;;;6176024;23;19920;-83
2022/03/30 01:10:47;;;;;;;;;;;;;;;;;;6177416;23;20230;-83
2022/03/30 01:13:14;;;;;;;;;;;;;;;;;;6174858;23;19928;-83
2022/03/30 01:15:41;;;;;;;;;;;;;;;;;;6176452;23;20361;-83
2022/03/30 01:18:08;;;;;;;;;;;;;;;;;;6176701;23;20337;-83
2022/03/30 01:20:35;;;;;;;;;;;;;;;;;;6176841;23;20011;-83
2022/03/30 01:23:03;;;;;;;;;;;;;;;;;;6180200;23;19916;-83
2022/03/30 01:25:34;;;;;;;;;;;;;;;;;;6179785;23;19987;-83
2022/03/30 01:28:02;;;;;;;;;;;;;;;;;;6179304;23;19920;-83
2022/03/30 01:33:17;;;;;;;;;;;;;;;;;;6179426;23;19924;-83
2022/03/30 01:35:44;;;;;;;;;;;;;;;;;;6180099;23;19924;-83
2022/03/30 01:38:10;;;;;;;;;;;;;;;;;;6179774;23;19926;-83
2022/03/30 01:40:37;;;;;;;;;;;;;;;;;;6179643;23;19987;-83
2022/03/30 01:43:05;;;;;;;;;;;;;;;;;;6180774;23;19991;-83
2022/03/30 01:45:41;;;;;;;;;;;;;;;;;;6206891;23;19938;-83
2022/03/30 01:48:18;;;;;;;;;;;;;;;;;;6180639;23;20285;-83
2022/03/30 01:50:45;;;;;;;;;;;;;;;;;;6179677;23;19952;-83
2022/03/30 01:53:13;;;;;;;;;;;;;;;;;;6178780;23;19920;-83
2022/03/30 01:55:50;;;;;;;;;;;;;;;;;;6203692;23;20407;-83
2022/03/30 01:58:16;;;;;;;;;;;;;;;;;;6199010;23;19920;-83
2022/03/30 02:00:43;;;;;;;;;;;;;;;;;;6176904;23;19920;-83
2022/03/30 02:03:11;;;;;;;;;;;;;;;;;;6177112;23;19974;-83
2022/03/30 02:05:38;;;;;;;;;;;;;;;;;;6176521;23;19994;-83
2022/03/30 02:08:05;;;;;;;;;;;;;;;;;;6175460;23;20278;-83
2022/03/30 02:10:46;;;;;;;;;;;;;;;;;;6131991;23;19967;-83
2022/03/30 02:13:31;;;;;;;;;;;;;;;;;;6109407;23;20075;-83
2022/03/30 02:15:58;;;;;;;;;;;;;;;;;;6086592;23;19928;-83
2022/03/30 02:18:24;;;;;;;;;;;;;;;;;;6111722;23;20283;-83
2022/03/30 02:20:52;;;;;;;;;;;;;;;;;;6085295;23;20646;-83
2022/03/30 02:23:28;;;;;;;;;;;;;;;;;;6133278;23;20231;-83
2022/03/30 02:26:10;;;;;;;;;;;;;;;;;;6110967;23;20293;-83
2022/03/30 02:28:37;;;;;;;;;;;;;;;;;;6086699;23;20352;-83
2022/03/30 02:31:04;;;;;;;;;;;;;;;;;;6108869;23;19921;-83
2022/03/30 02:33:30;;;;;;;;;;;;;;;;;;6110791;23;19927;-83
2022/03/30 02:35:58;;;;;;;;;;;;;;;;;;6109670;23;19921;-83
2022/03/30 02:38:25;;;;;;;;;;;;;;;;;;6110106;23;19917;-83
2022/03/30 02:40:52;;;;;;;;;;;;;;;;;;6121175;23;19921;-83
2022/03/30 02:43:19;;;;;;;;;;;;;;;;;;6173954;23;19920;-83
2022/03/30 02:46:00;;;;;;;;;;;;;;;;;;6132665;23;19956;-84
2022/03/30 02:48:33;;;;;;;;;;;;;;;;;;6109621;23;19920;-83
2022/03/30 02:51:02;;;;;;;;;;;;;;;;;;6086083;23;19924;-83
2022/03/30 02:53:29;;;;;;;;;;;;;;;;;;6112773;23;19951;-83
2022/03/30 02:55:56;;;;;;;;;;;;;;;;;;6084853;23;20473;-83
2022/03/30 02:58:43;;;;;;;;;;;;;;;;;;6112867;23;19920;-83
2022/03/30 03:01:10;;;;;;;;;;;;;;;;;;6114529;23;19921;-83
2022/03/30 03:03:37;;;;;;;;;;;;;;;;;;6116579;23;19917;-83
2022/03/30 03:06:03;;;;;;;;;;;;;;;;;;6115301;23;20013;-83
2022/03/30 03:08:29;;;;;;;;;;;;;;;;;;6091653;23;19988;-83
2022/03/30 03:10:57;;;;;;;;;;;;;;;;;;6114984;23;19921;-83
2022/03/30 03:13:25;;;;;;;;;;;;;;;;;;6114466;23;20003;-83
2022/03/30 03:15:52;;;;;;;;;;;;;;;;;;6092463;23;19936;-83
2022/03/30 03:18:20;;;;;;;;;;;;;;;;;;6181681;23;20013;-83
2022/03/30 03:20:47;;;;;;;;;;;;;;;;;;6181020;23;19919;-83
2022/03/30 03:23:28;;;;;;;;;;;;;;;;;;6144783;23;19920;-83
2022/03/30 03:25:54;;;;;;;;;;;;;;;;;;6095443;23;19923;-84
2022/03/30 03:28:20;;;;;;;;;;;;;;;;;;6118407;23;19916;-84
2022/03/30 03:30:48;;;;;;;;;;;;;;;;;;6093202;23;19923;-84
2022/03/30 03:33:15;;;;;;;;;;;;;;;;;;6141597;23;19926;-83
2022/03/30 03:35:42;;;;;;;;;;;;;;;;;;6092310;23;19923;-83
2022/03/30 03:38:09;;;;;;;;;;;;;;;;;;6116365;23;20542;-83
2022/03/30 03:40:35;;;;;;;;;;;;;;;;;;6091132;23;19989;-84
2022/03/30 03:43:05;;;;;;;;;;;;;;;;;;6117620;23;19991;-83
2022/03/30 03:45:31;;;;;;;;;;;;;;;;;;6092388;23;20644;-83
2022/03/30 03:47:59;;;;;;;;;;;;;;;;;;6116916;23;20223;-83
2022/03/30 03:50:26;;;;;;;;;;;;;;;;;;6093829;23;20460;-83
2022/03/30 03:52:53;;;;;;;;;;;;;;;;;;6095564;23;19924;-83
2022/03/30 03:55:21;;;;;;;;;;;;;;;;;;6167155;23;20350;-84
2022/03/30 03:57:53;;;;;;;;;;;;;;;;;;6178010;23;20316;-84
2022/03/30 04:00:21;;;;;;;;;;;;;;;;;;6177784;23;20568;-83
2022/03/30 04:02:48;;;;;;;;;;;;;;;;;;6176604;23;20261;-83
2022/03/30 04:05:14;;;;;;;;;;;;;;;;;;6177675;23;19945;-83
2022/03/30 04:07:42;;;;;;;;;;;;;;;;;;6179864;23;19995;-83
2022/03/30 04:10:24;;;;;;;;;;;;;;;;;;6140202;23;19924;-83
2022/03/30 04:12:50;;;;;;;;;;;;;;;;;;6116649;23;20019;-83
2022/03/30 04:15:16;;;;;;;;;;;;;;;;;;6115290;23;19951;-83
2022/03/30 04:17:44;;;;;;;;;;;;;;;;;;6116905;23;19932;-83
2022/03/30 04:20:10;;;;;;;;;;;;;;;;;;6114496;23;20147;-84
2022/03/30 04:22:56;;;;;;;;;;;;;;;;;;6140376;23;19942;-84
2022/03/30 04:25:23;;;;;;;;;;;;;;;;;;6138853;23;19921;-84
2022/03/30 04:27:50;;;;;;;;;;;;;;;;;;6116980;23;19944;-84
2022/03/30 04:30:17;;;;;;;;;;;;;;;;;;6140118;23;19931;-84
2022/03/30 04:32:45;;;;;;;;;;;;;;;;;;6115902;23;19971;-84
2022/03/30 04:35:12;;;;;;;;;;;;;;;;;;6116123;23;19931;-84
2022/03/30 04:37:42;;;;;;;;;;;;;;;;;;6140235;23;19949;-84
2022/03/30 04:40:09;;;;;;;;;;;;;;;;;;6108185;23;19920;-83
2022/03/30 04:42:36;;;;;;;;;;;;;;;;;;6145136;23;19956;-84
2022/03/30 04:45:03;;;;;;;;;;;;;;;;;;6147315;23;20003;-84
2022/03/30 04:47:32;;;;;;;;;;;;;;;;;;6146751;23;19927;-84
2022/03/30 04:49:59;;;;;;;;;;;;;;;;;;6146532;23;19916;-84
2022/03/30 04:52:26;;;;;;;;;;;;;;;;;;6148193;23;19931;-84
2022/03/30 04:54:54;;;;;;;;;;;;;;;;;;6147066;23;19924;-83
2022/03/30 04:57:22;;;;;;;;;;;;;;;;;;6146501;23;19920;-84
2022/03/30 04:59:49;;;;;;;;;;;;;;;;;;6150331;23;19923;-84
2022/03/30 05:02:16;;;;;;;;;;;;;;;;;;6148200;23;19920;-83
2022/03/30 05:04:43;;;;;;;;;;;;;;;;;;6150608;23;20084;-84
2022/03/30 05:07:11;;;;;;;;;;;;;;;;;;6150598;23;19920;-84
2022/03/30 05:09:38;;;;;;;;;;;;;;;;;;6149354;23;19964;-85
2022/03/30 05:12:04;;;;;;;;;;;;;;;;;;6149990;23;19931;-84
2022/03/30 05:14:32;;;;;;;;;;;;;;;;;;6164509;23;19924;-84
2022/03/30 05:17:00;;;;;;;;;;;;;;;;;;6174851;23;20222;-84
2022/03/30 05:19:27;;;;;;;;;;;;;;;;;;6174859;23;19916;-84
2022/03/30 05:21:54;;;;;;;;;;;;;;;;;;6175213;23;19947;-84
2022/03/30 05:24:21;;;;;;;;;;;;;;;;;;6198926;23;19920;-84
2022/03/30 05:26:48;;;;;;;;;;;;;;;;;;6174516;23;19996;-84
2022/03/30 05:29:19;;;;;;;;;;;;;;;;;;6175904;23;19987;-84
2022/03/30 05:31:55;;;;;;;;;;;;;;;;;;6148056;23;19959;-84
2022/03/30 05:34:24;;;;;;;;;;;;;;;;;;6150414;23;19920;-85
2022/03/30 05:36:50;;;;;;;;;;;;;;;;;;6174153;23;19927;-84
2022/03/30 05:39:18;;;;;;;;;;;;;;;;;;6172492;23;19927;-85
2022/03/30 05:41:45;;;;;;;;;;;;;;;;;;6160043;23;20329;-85
2022/03/30 05:44:12;;;;;;;;;;;;;;;;;;6174248;23;20337;-84
2022/03/30 05:46:39;;;;;;;;;;;;;;;;;;6173830;23;19920;-84
2022/03/30 05:49:07;;;;;;;;;;;;;;;;;;6174971;23;19991;-84
2022/03/30 05:51:34;;;;;;;;;;;;;;;;;;6173759;23;20631;-84
2022/03/30 05:54:00;;;;;;;;;;;;;;;;;;6174393;23;19916;-84
2022/03/30 05:59:21;;;;;;;;;;;;;;;;;;6173787;23;19923;-84
2022/03/30 06:01:48;;;;;;;;;;;;;;;;;;6173350;23;19920;-85
2022/03/30 06:04:15;;;;;;;;;;;;;;;;;;6197660;23;19920;-84
2022/03/30 06:06:43;;;;;;;;;;;;;;;;;;6172978;23;19931;-84
2022/03/30 06:09:24;;;;;;;;;;;;;;;;;;6142697;23;20296;-84
2022/03/30 06:11:51;;;;;;;;;;;;;;;;;;6120054;23;20064;-84
2022/03/30 06:14:18;;;;;;;;;;;;;;;;;;6092834;23;19921;-84
2022/03/30 06:16:44;;;;;;;;;;;;;;;;;;6091528;23;19927;-84
2022/03/30 06:19:12;;;;;;;;;;;;;;;;;;6092025;23;20055;-84
2022/03/30 06:21:41;;;;;;;;;;;;;;;;;;6092541;23;20383;-84
2022/03/30 06:24:11;;;;;;;;;;;;;;;;;;6091643;23;19921;-84
2022/03/30 06:26:38;;;;;;;;;;;;;;;;;;6091222;23;19929;-84
2022/03/30 06:29:04;;;;;;;;;;;;;;;;;;6092974;23;20012;-84
2022/03/30 06:31:32;;;;;;;;;;;;;;;;;;6092093;23;19951;-84
2022/03/30 06:33:59;;;;;;;;;;;;;;;;;;6093888;23;20211;-84
2022/03/30 06:36:27;;;;;;;;;;;;;;;;;;6093593;23;19920;-84
2022/03/30 06:38:55;;;;;;;;;;;;;;;;;;6094529;23;19920;-84
2022/03/30 06:41:24;;;;;;;;;;;;;;;;;;6147220;23;19920;-84
2022/03/30 06:43:54;;;;;;;;;;;;;;;;;;6154505;23;19927;-84
2022/03/30 06:46:21;;;;;;;;;;;;;;;;;;6128285;23;19927;-84
2022/03/30 06:48:48;;;;;;;;;;;;;;;;;;6152641;23;19975;-84
2022/03/30 06:51:15;;;;;;;;;;;;;;;;;;6156071;23;20007;-83
2022/03/30 06:53:41;;;;;;;;;;;;;;;;;;6129186;23;20253;-83
2022/03/30 06:56:08;;;;;;;;;;;;;;;;;;6126017;23;19924;-83
2022/03/30 06:58:35;;;;;;;;;;;;;;;;;;6177593;23;19916;-83
2022/03/30 07:01:01;;;;;;;;;;;;;;;;;;6128815;23;19916;-84
2022/03/30 07:03:29;;;;;;;;;;;;;;;;;;6128146;23;19920;-84
2022/03/30 07:05:56;;;;;;;;;;;;;;;;;;6152796;23;20297;-84
2022/03/30 07:11:23;;;;;;;;;;;;;;;;;;6180710;23;19927;-83
2022/03/30 07:13:51;;;;;;;;;;;;;;;;;;6160620;23;19924;-85
2022/03/30 07:16:19;;;;;;;;;;;;;;;;;;6175848;23;19924;-85
2022/03/30 07:18:46;;;;;;;;;;;;;;;;;;6180727;23;19927;-85
2022/03/30 07:21:13;;;;;;;;;;;;;;;;;;6181409;23;19926;-85
2022/03/30 07:23:41;;;;;;;;;;;;;;;;;;6204256;23;20029;-86
2022/03/30 07:26:07;;;;;;;;;;;;;;;;;;6178784;23;19987;-85
2022/03/30 07:28:37;;;;;;;;;;;;;;;;;;6180218;23;20370;-85
2022/03/30 07:31:08;;;;;;;;;;;;;;;;;;6181746;23;19943;-85
2022/03/30 07:33:36;;;;;;;;;;;;;;;;;;6179885;23;19932;-85
2022/03/30 07:36:03;;;;;;;;;;;;;;;;;;6180796;23;19983;-85
2022/03/30 07:38:50;;;;;;;;;;;;;;;;;;6153352;23;19920;-85
2022/03/30 07:41:18;;;;;;;;;;;;;;;;;;6178849;23;19990;-85
2022/03/30 07:43:47;;;;;;;;;;;;;;;;;;6137281;23;19923;-85
2022/03/30 07:46:13;;;;;;;;;;;;;;;;;;6149013;23;19924;-85
2022/03/30 07:48:40;;;;;;;;;;;;;;;;;;6149425;23;20308;-85
2022/03/30 07:51:07;;;;;;;;;;;;;;;;;;6123444;23;19952;-85
2022/03/30 07:53:43;;;;;;;;;;;;;;;;;;6148295;23;19931;-84
2022/03/30 07:56:10;;;;;;;;;;;;;;;;;;6123125;23;19927;-85
2022/03/30 07:58:37;;;;;;;;;;;;;;;;;;6122705;23;20321;-85
2022/03/30 08:01:03;;;;;;;;;;;;;;;;;;6122928;23;19923;-85
2022/03/30 08:03:48;;;;;;;;;;;;;;;;;;6126326;23;19931;-85
2022/03/30 08:06:16;;;;;;;;;;;;;;;;;;6147845;23;19920;-85
2022/03/30 08:08:43;;;;;;;;;;;;;;;;;;6123397;23;20413;-85
2022/03/30 08:11:10;;;;;;;;;;;;;;;;;;6124315;23;19923;-85
2022/03/30 08:13:36;;;;;;;;;;;;;;;;;;6123900;23;20250;-85
2022/03/30 08:16:03;;;;;;;;;;;;;;;;;;6102164;23;19925;-85
2022/03/30 08:18:31;;;;;;;;;;;;;;;;;;6099466;23;19916;-85
2022/03/30 08:23:46;;;;;;;;;;;;;;;;;;6124560;23;20021;-86
2022/03/30 08:26:13;;;;;;;;;;;;;;;;;;6124245;23;20405;-85
2022/03/30 08:28:41;;;;;;;;;;;;;;;;;;6100062;23;19921;-85
2022/03/30 08:31:09;;;;;;;;;;;;;;;;;;6123419;23;19926;-85
2022/03/30 08:33:36;;;;;;;;;;;;;;;;;;6125257;23;19924;-85
2022/03/30 08:36:02;;;;;;;;;;;;;;;;;;6149404;23;19924;-85
2022/03/30 08:38:29;;;;;;;;;;;;;;;;;;6099794;23;19921;-85
2022/03/30 08:40:57;;;;;;;;;;;;;;;;;;6122385;23;19920;-85
2022/03/30 08:43:24;;;;;;;;;;;;;;;;;;6125378;23;19917;-86
2022/03/30 08:46:03;;;;;;;;;;;;;;;;;;6151283;23;19923;-86
2022/03/30 08:48:50;;;;;;;;;;;;;;;;;;6093917;23;20318;-85
2022/03/30 08:51:17;;;;;;;;;;;;;;;;;;6090532;23;19956;-85
2022/03/30 08:53:47;;;;;;;;;;;;;;;;;;6069741;23;19925;-85
2022/03/30 08:56:14;;;;;;;;;;;;;;;;;;6069640;23;20374;-85
2022/03/30 08:58:41;;;;;;;;;;;;;;;;;;6093811;23;19981;-85
2022/03/30 09:01:09;;;;;;;;;;;;;;;;;;6068812;23;19921;-85
2022/03/30 09:03:37;;;;;;;;;;;;;;;;;;6093565;23;19980;-85
2022/03/30 09:06:04;;;;;;;;;;;;;;;;;;6068440;23;20203;-85
2022/03/30 09:08:36;;;;;;;;;;;;;;;;;;6080470;23;21324;-85
2022/03/30 09:11:04;;;;;;;;;;;;;;;;;;6070455;23;19921;-85
2022/03/30 09:13:31;;;;;;;;;;;;;;;;;;6093623;23;19921;-85
2022/03/30 09:16:01;;;;;;;;;;;;;;;;;;6134736;23;19921;-85
2022/03/30 09:18:41;;;;;;;;;;;;;;;;;;6096660;23;19988;-85
2022/03/30 09:21:09;;;;;;;;;;;;;;;;;;6118168;23;20440;-85
2022/03/30 09:23:37;;;;;;;;;;;;;;;;;;6118474;23;20037;-85
2022/03/30 09:26:04;;;;;;;;;;;;;;;;;;6118637;23;20086;-85
2022/03/30 09:28:45;;;;;;;;;;;;;;;;;;6089588;23;20543;-85
2022/03/30 09:31:11;;;;;;;;;;;;;;;;;;6089214;23;19917;-85
2022/03/30 09:33:57;;;;;;;;;;;;;;;;;;6032750;23;19972;-85
2022/03/30 09:36:27;;;;;;;;;;;;;;;;;;6031333;23;19957;-85
2022/03/30 09:39:00;;;;;;;;;;;;;;;;;;6031487;23;20338;-85
2022/03/30 09:41:28;;;;;;;;;;;;;;;;;;6007732;23;20362;-85
2022/03/30 09:44:14;;;;;;;;;;;;;;;;;;6031840;23;19993;-84
2022/03/30 09:46:42;;;;;;;;;;;;;;;;;;6031534;23;19918;-85
2022/03/30 09:49:09;;;;;;;;;;;;;;;;;;6023562;23;19921;-85
2022/03/30 09:51:55;;;;;;;;;;;;;;;;;;6093606;23;19921;-85
2022/03/30 09:54:22;;;;;;;;;;;;;;;;;;6069177;23;19943;-84
2022/03/30 09:56:49;;;;;;;;;;;;;;;;;;6069790;23;20353;-85
2022/03/30 09:59:17;;;;;;;;;;;;;;;;;;6069586;23;19921;-85
2022/03/30 10:01:44;;;;;;;;;;;;;;;;;;6093405;23;20296;-84
2022/03/30 10:04:14;;;;;;;;;;;;;;;;;;6107515;23;20268;-85
2022/03/30 10:06:42;;;;;;;;;;;;;;;;;;6128188;23;19916;-85
2022/03/30 10:09:10;;;;;;;;;;;;;;;;;;6152521;23;19920;-85
2022/03/30 10:11:37;;;;;;;;;;;;;;;;;;6128190;23;19917;-85
2022/03/30 10:14:08;;;;;;;;;;;;;;;;;;6151170;23;19924;-85
2022/03/30 10:16:36;;;;;;;;;;;;;;;;;;6122882;23;19973;-85
2022/03/30 10:19:01;;;;;;;;;;;;;;;;;;6123274;23;19917;-85
2022/03/30 10:21:29;;;;;;;;;;;;;;;;;;6123051;23;19960;-85
2022/03/30 10:23:56;;;;;;;;;;;;;;;;;;6123306;23;19917;-85
2022/03/30 10:26:23;;;;;;;;;;;;;;;;;;6146322;23;19999;-85
2022/03/30 10:28:50;;;;;;;;;;;;;;;;;;6098243;23;19955;-85
2022/03/30 10:31:18;;;;;;;;;;;;;;;;;;6122315;23;19988;-85
2022/03/30 10:33:44;;;;;;;;;;;;;;;;;;6122575;23;20378;-85
2022/03/30 10:36:10;;;;;;;;;;;;;;;;;;6096592;23;20463;-85
2022/03/30 10:38:36;;;;;;;;;;;;;;;;;;6097465;23;19921;-85
2022/03/30 10:41:10;;;;;;;;;;;;;;;;;;6116802;23;19928;-85
2022/03/30 10:43:37;;;;;;;;;;;;;;;;;;6121903;23;20322;-85
2022/03/30 10:46:05;;;;;;;;;;;;;;;;;;6123232;23;20385;-85
2022/03/30 10:48:33;;;;;;;;;;;;;;;;;;6122739;23;20296;-85
2022/03/30 10:51:00;;;;;;;;;;;;;;;;;;6122712;23;19929;-85
2022/03/30 10:53:25;;;;;;;;;;;;;;;;;;6122012;23;19999;-85
2022/03/30 10:55:51;;;;;;;;;;;;;;;;;;6122400;23;19963;-85
2022/03/30 10:58:37;;;;;;;;;;;;;;;;;;6149252;23;19919;-85
2022/03/30 11:01:04;;;;;;;;;;;;;;;;;;6122778;23;20027;-85
2022/03/30 11:03:51;;;;;;;;;;;;;;;;;;6062938;23;19917;-85
2022/03/30 11:06:18;;;;;;;;;;;;;;;;;;6063182;23;20321;-85
2022/03/30 11:08:46;;;;;;;;;;;;;;;;;;6087937;23;19921;-85
2022/03/30 11:11:13;;;;;;;;;;;;;;;;;;6062526;23;19995;-85
2022/03/30 11:13:40;;;;;;;;;;;;;;;;;;6090175;23;19917;-85
2022/03/30 11:16:11;;;;;;;;;;;;;;;;;;6040817;23;19921;-85
2022/03/30 11:18:47;;;;;;;;;;;;;;;;;;6038687;23;19926;-85
2022/03/30 11:21:18;;;;;;;;;;;;;;;;;;6037700;23;19930;-85
2022/03/30 11:23:46;;;;;;;;;;;;;;;;;;6037957;23;19917;-84
2022/03/30 11:26:12;;;;;;;;;;;;;;;;;;6059606;23;19918;-84
2022/03/30 11:28:45;;;;;;;;;;;;;;;;;;6061673;23;19965;-85
2022/03/30 11:31:12;;;;;;;;;;;;;;;;;;6061249;23;19928;-85
2022/03/30 11:33:40;;;;;;;;;;;;;;;;;;6061486;23;20738;-85
2022/03/30 11:36:08;;;;;;;;;;;;;;;;;;6037648;23;19921;-85
2022/03/30 11:38:37;;;;;;;;;;;;;;;;;;6061896;23;19925;-85
2022/03/30 11:41:08;;;;;;;;;;;;;;;;;;6035526;23;20259;-85
2022/03/30 11:45:12;;;;;;;;;;;;;;;;;;6004077;23;19918;-85
2022/03/30 11:46:24;;;;;;;;;;;;;;;;;;6003441;23;20016;-85
2022/03/30 11:48:51;;;;;;;;;;;;;;;;;;6035580;23;19925;-85
2022/03/30 11:51:18;;;;;;;;;;;;;;;;;;6036322;23;19962;-84
2022/03/30 11:53:45;;;;;;;;;;;;;;;;;;6038086;23;19922;-85
2022/03/30 11:56:13;;;;;;;;;;;;;;;;;;6036909;23;20360;-85
2022/03/30 11:58:41;;;;;;;;;;;;;;;;;;6037329;23;19930;-85
2022/03/30 12:01:08;;;;;;;;;;;;;;;;;;6036967;23;20350;-85
2022/03/30 12:03:35;;;;;;;;;;;;;;;;;;6007902;23;19922;-85
2022/03/30 12:06:03;;;;;;;;;;;;;;;;;;6035528;23;19917;-85
2022/03/30 12:08:30;;;;;;;;;;;;;;;;;;6034237;23;19925;-85
2022/03/30 12:10:56;;;;;;;;;;;;;;;;;;6011645;23;19922;-86
2022/03/30 12:13:29;;;;;;;;;;;;;;;;;;6039268;23;19933;-85
2022/03/30 12:15:55;;;;;;;;;;;;;;;;;;6167788;23;19920;-85
2022/03/30 12:18:21;;;;;;;;;;;;;;;;;;6182042;23;19927;-85
2022/03/30 12:20:49;;;;;;;;;;;;;;;;;;6182305;23;19919;-85
2022/03/30 12:23:30;;;;;;;;;;;;;;;;;;6146601;23;20034;-85
2022/03/30 12:25:57;;;;;;;;;;;;;;;;;;6121199;23;20000;-85
2022/03/30 12:28:24;;;;;;;;;;;;;;;;;;6120810;23;19944;-85
2022/03/30 12:30:52;;;;;;;;;;;;;;;;;;6121452;23;19921;-85
2022/03/30 12:33:19;;;;;;;;;;;;;;;;;;6120985;23;20278;-85
2022/03/30 12:35:46;;;;;;;;;;;;;;;;;;6121121;23;19939;-85
2022/03/30 12:38:15;;;;;;;;;;;;;;;;;;6121573;23;19943;-85
2022/03/30 12:40:41;;;;;;;;;;;;;;;;;;6120151;23;19928;-86
2022/03/30 12:43:08;;;;;;;;;;;;;;;;;;6121370;23;19916;-85
2022/03/30 12:45:34;;;;;;;;;;;;;;;;;;6120889;23;19925;-85
2022/03/30 12:48:02;;;;;;;;;;;;;;;;;;6121998;23;20195;-85
2022/03/30 12:50:31;;;;;;;;;;;;;;;;;;6120967;23;20665;-85
2022/03/30 12:52:57;;;;;;;;;;;;;;;;;;6121377;23;19928;-84
2022/03/30 12:55:41;;;;;;;;;;;;;;;;;;6207447;23;20384;-85
2022/03/30 12:58:08;;;;;;;;;;;;;;;;;;6182257;23;19920;-85
2022/03/30 13:00:35;;;;;;;;;;;;;;;;;;6182196;23;19920;-85
2022/03/30 13:03:01;;;;;;;;;;;;;;;;;;6182172;23;20414;-85
2022/03/30 13:05:29;;;;;;;;;;;;;;;;;;6182325;23;19927;-85
2022/03/30 13:07:55;;;;;;;;;;;;;;;;;;6182291;23;19969;-85
2022/03/30 13:10:23;;;;;;;;;;;;;;;;;;6178184;23;19970;-85
2022/03/30 13:12:51;;;;;;;;;;;;;;;;;;6182330;23;19924;-85
2022/03/30 13:15:18;;;;;;;;;;;;;;;;;;6181221;23;19923;-85
2022/03/30 13:17:45;;;;;;;;;;;;;;;;;;6182634;23;19919;-85
2022/03/30 13:20:12;;;;;;;;;;;;;;;;;;6182429;23;19926;-85
2022/03/30 13:22:39;;;;;;;;;;;;;;;;;;6181870;23;19924;-84
2022/03/30 13:25:07;;;;;;;;;;;;;;;;;;6182950;23;19991;-85
2022/03/30 13:27:33;;;;;;;;;;;;;;;;;;6182295;23;20337;-85
2022/03/30 13:30:14;;;;;;;;;;;;;;;;;;6145239;23;19921;-84
2022/03/30 13:32:41;;;;;;;;;;;;;;;;;;6120273;23;19947;-85
2022/03/30 13:35:23;;;;;;;;;;;;;;;;;;6058159;23;20385;-85
2022/03/30 13:37:51;;;;;;;;;;;;;;;;;;6057335;23;20441;-85
2022/03/30 13:40:19;;;;;;;;;;;;;;;;;;6057265;23;20000;-84
2022/03/30 13:42:46;;;;;;;;;;;;;;;;;;6057176;23;20382;-85
2022/03/30 13:45:14;;;;;;;;;;;;;;;;;;6032807;23;20394;-84
2022/03/30 13:47:41;;;;;;;;;;;;;;;;;;6058698;23;20422;-85
2022/03/30 13:50:09;;;;;;;;;;;;;;;;;;6053218;23;19969;-84
2022/03/30 13:52:37;;;;;;;;;;;;;;;;;;6054867;23;20251;-85
2022/03/30 13:55:05;;;;;;;;;;;;;;;;;;6057454;23;20294;-84
2022/03/30 13:57:32;;;;;;;;;;;;;;;;;;6031619;23;19922;-85
2022/03/30 13:59:59;;;;;;;;;;;;;;;;;;6053511;23;19929;-85
2022/03/30 14:02:26;;;;;;;;;;;;;;;;;;6086985;23;19921;-85
2022/03/30 14:04:54;;;;;;;;;;;;;;;;;;6088918;23;20008;-85
2022/03/30 14:07:35;;;;;;;;;;;;;;;;;;6142166;23;19916;-85
2022/03/30 14:10:02;;;;;;;;;;;;;;;;;;6119679;23;20305;-85
2022/03/30 14:12:29;;;;;;;;;;;;;;;;;;6094629;23;20220;-84
2022/03/30 14:14:57;;;;;;;;;;;;;;;;;;6115647;23;20492;-85
2022/03/30 14:17:24;;;;;;;;;;;;;;;;;;6093700;23;19924;-85
2022/03/30 14:19:52;;;;;;;;;;;;;;;;;;6118942;23;20032;-85
2022/03/30 14:22:19;;;;;;;;;;;;;;;;;;6118520;23;19916;-84
2022/03/30 14:24:51;;;;;;;;;;;;;;;;;;6092456;23;19940;-85
2022/03/30 14:27:21;;;;;;;;;;;;;;;;;;6119254;23;19920;-85
2022/03/30 14:29:47;;;;;;;;;;;;;;;;;;6120227;23;19992;-85
2022/03/30 14:32:16;;;;;;;;;;;;;;;;;;6119151;23;20352;-84
2022/03/30 14:34:50;;;;;;;;;;;;;;;;;;6118725;23;19917;-85
2022/03/30 14:37:28;;;;;;;;;;;;;;;;;;6119129;23;19956;-84
2022/03/30 14:40:19;;;;;;;;;;;;;;;;;;6164390;23;19920;-85
2022/03/30 14:42:46;;;;;;;;;;;;;;;;;;6113665;23;20247;-85
2022/03/30 14:45:15;;;;;;;;;;;;;;;;;;6116964;23;19930;-85
2022/03/30 14:47:51;;;;;;;;;;;;;;;;;;6120922;23;19920;-85
2022/03/30 14:50:18;;;;;;;;;;;;;;;;;;6121734;23;20099;-85
2022/03/30 14:52:45;;;;;;;;;;;;;;;;;;6146286;23;19956;-85
2022/03/30 14:55:13;;;;;;;;;;;;;;;;;;6142159;23;19927;-85
2022/03/30 14:57:40;;;;;;;;;;;;;;;;;;6119623;23;19925;-84
2022/03/30 15:00:09;;;;;;;;;;;;;;;;;;6120480;23;19920;-85
2022/03/30 15:02:46;;;;;;;;;;;;;;;;;;6121208;23;19956;-85
2022/03/30 15:05:36;;;;;;;;;;;;;;;;;;6145701;23;19949;-84
2022/03/30 15:08:03;;;;;;;;;;;;;;;;;;6116374;23;19916;-84
2022/03/30 15:10:30;;;;;;;;;;;;;;;;;;6125121;23;20011;-84
2022/03/30 15:12:57;;;;;;;;;;;;;;;;;;6177256;23;19979;-84
2022/03/30 15:15:43;;;;;;;;;;;;;;;;;;6147268;23;20262;-84
2022/03/30 15:18:12;;;;;;;;;;;;;;;;;;6150519;23;19959;-85
2022/03/30 15:20:39;;;;;;;;;;;;;;;;;;6125767;23;19931;-84
2022/03/30 15:23:20;;;;;;;;;;;;;;;;;;6084973;23;20497;-85
2022/03/30 15:25:48;;;;;;;;;;;;;;;;;;6082228;23;19992;-85
2022/03/30 15:28:16;;;;;;;;;;;;;;;;;;6084914;23;19922;-85
2022/03/30 15:30:45;;;;;;;;;;;;;;;;;;6083967;23;19954;-84
2022/03/30 15:33:14;;;;;;;;;;;;;;;;;;6083137;23;20386;-85
2022/03/30 15:35:41;;;;;;;;;;;;;;;;;;6086033;23;19918;-84
2022/03/30 15:38:08;;;;;;;;;;;;;;;;;;6062728;23;19923;-85
2022/03/30 15:40:36;;;;;;;;;;;;;;;;;;6087162;23;19921;-85
2022/03/30 15:43:03;;;;;;;;;;;;;;;;;;6064277;23;19921;-85
2022/03/30 15:45:29;;;;;;;;;;;;;;;;;;6088188;23;19972;-85
2022/03/30 15:47:56;;;;;;;;;;;;;;;;;;6087976;23;19928;-85
2022/03/30 15:50:26;;;;;;;;;;;;;;;;;;6085881;23;19921;-84
2022/03/30 15:52:53;;;;;;;;;;;;;;;;;;6083455;23;19926;-84
2022/03/30 15:55:22;;;;;;;;;;;;;;;;;;6162617;23;19920;-84
2022/03/30 15:57:49;;;;;;;;;;;;;;;;;;6144594;23;20007;-84
2022/03/30 16:00:17;;;;;;;;;;;;;;;;;;6137779;23;20356;-84
2022/03/30 16:02:44;;;;;;;;;;;;;;;;;;6150092;23;19924;-84
2022/03/30 16:05:11;;;;;;;;;;;;;;;;;;6175048;23;19920;-84
2022/03/30 16:08:54;;;;;;;;;;;;;;;;;;6178556;23;19920;-84
2022/03/30 16:10:32;;;;;;;;;;;;;;;;;;6177502;23;19920;-84
2022/03/30 16:13:02;;;;;;;;;;;;;;;;;;6151503;23;19927;-84
2022/03/30 16:15:31;;;;;;;;;;;;;;;;;;6158756;23;19951;-84
2022/03/30 16:17:58;;;;;;;;;;;;;;;;;;6205942;23;19923;-84
2022/03/30 16:20:31;;;;;;;;;;;;;;;;;;6208838;23;19958;-83
2022/03/30 16:22:58;;;;;;;;;;;;;;;;;;6205727;23;19927;-84
2022/03/30 16:25:24;;;;;;;;;;;;;;;;;;6207651;23;20296;-84
2022/03/30 16:27:51;;;;;;;;;;;;;;;;;;6180200;23;19915;-84
2022/03/30 16:30:17;;;;;;;;;;;;;;;;;;6182362;23;20333;-84
2022/03/30 16:32:44;;;;;;;;;;;;;;;;;;6178640;23;19939;-84
2022/03/30 16:35:12;;;;;;;;;;;;;;;;;;6179422;23;19920;-84
2022/03/30 16:37:48;;;;;;;;;;;;;;;;;;6178014;23;19955;-84
2022/03/30 16:40:15;;;;;;;;;;;;;;;;;;6180168;23;19920;-84
2022/03/30 16:42:42;;;;;;;;;;;;;;;;;;6180437;23;19916;-84
2022/03/30 16:45:09;;;;;;;;;;;;;;;;;;6180793;23;19920;-83
2022/03/30 16:47:37;;;;;;;;;;;;;;;;;;6202923;23;20287;-83
2022/03/30 16:50:04;;;;;;;;;;;;;;;;;;6206136;23;19966;-84
2022/03/30 16:52:31;;;;;;;;;;;;;;;;;;6181774;23;19920;-84
2022/03/30 16:54:57;;;;;;;;;;;;;;;;;;6183779;23;19916;-84
2022/03/30 16:57:24;;;;;;;;;;;;;;;;;;6183351;23;20793;-84
2022/03/30 16:59:51;;;;;;;;;;;;;;;;;;6181987;23;19955;-84
2022/03/30 17:02:18;;;;;;;;;;;;;;;;;;6181269;23;19919;-83
2022/03/30 17:04:46;;;;;;;;;;;;;;;;;;6184035;23;19987;-84
2022/03/30 17:07:13;;;;;;;;;;;;;;;;;;6181780;23;19924;-84
2022/03/30 17:12:25;;;;;;;;;;;;;;;;;;6146435;23;19929;-84